Time;durP1;ratioP1;P1;durP2;ratioP2;P2;SDS_P1;SDS_P2;PMS_P1;PMS_P2;Temp;Humidity;BMP_temperature;BMP_pressure;BME280_temperature;BME280_humidity;BME280_pressure;Samples;Min_cycle;Max_cycle;Signal;HPM_P1;HPM_P2
2023/02/13 00:00:30;;;;;;;2.47;1.10;;;23.40;49.00;;;;;;5054101;28;20219;-46
2023/02/13 00:03:00;;;;;;;2.08;0.90;;;23.50;49.00;;;;;;5052197;28;20202;-50
2023/02/13 00:05:31;;;;;;;4.03;1.00;;;23.50;49.00;;;;;;5052265;28;20195;-52
2023/02/13 00:08:03;;;;;;;2.55;1.13;;;23.50;49.00;;;;;;5063002;28;20203;-49
2023/02/13 00:10:34;;;;;;;2.72;1.08;;;23.50;48.90;;;;;;5071874;28;20231;-47
2023/02/13 00:13:07;;;;;;;2.55;0.85;;;23.50;48.90;;;;;;5073145;28;20201;-54
2023/02/13 00:15:37;;;;;;;2.58;1.10;;;23.60;48.90;;;;;;5071872;28;20195;-52
2023/02/13 00:18:08;;;;;;;3.85;0.93;;;23.60;48.90;;;;;;5072014;28;20205;-56
2023/02/13 00:20:39;;;;;;;2.60;0.95;;;23.70;48.90;;;;;;5071223;28;20226;-53
2023/02/13 00:23:09;;;;;;;2.47;1.10;;;23.70;48.90;;;;;;5071548;28;20662;-52
2023/02/13 00:25:41;;;;;;;4.32;0.95;;;23.70;48.90;;;;;;5071329;28;20210;-52
2023/02/13 00:28:14;;;;;;;4.25;1.10;;;23.70;48.90;;;;;;5071358;28;20209;-54
2023/02/13 00:30:44;;;;;;;2.38;0.98;;;23.70;48.90;;;;;;5068710;28;20227;-54
2023/02/13 00:33:15;;;;;;;2.90;1.10;;;23.80;48.90;;;;;;5053746;28;20199;-50
2023/02/13 00:35:46;;;;;;;3.75;0.95;;;23.80;49.00;;;;;;5053524;28;20206;-54
2023/02/13 00:38:17;;;;;;;4.20;1.17;;;23.80;49.10;;;;;;5066418;28;20202;-53
2023/02/13 00:40:47;;;;;;;3.10;1.20;;;23.90;49.10;;;;;;5073491;28;20226;-50
2023/02/13 00:43:20;;;;;;;3.22;1.10;;;23.90;49.00;;;;;;5073358;28;20194;-52
2023/02/13 00:45:51;;;;;;;3.30;1.00;;;23.90;49.10;;;;;;5074031;28;20210;-51
2023/02/13 00:48:21;;;;;;;3.20;1.10;;;23.90;49.70;;;;;;5073259;28;20205;-51
2023/02/13 00:50:52;;;;;;;2.17;1.05;;;24.00;49.10;;;;;;5071599;28;20237;-48
2023/02/13 00:53:24;;;;;;;3.42;1.20;;;24.00;49.20;;;;;;5071759;28;20206;-52
2023/02/13 00:55:55;;;;;;;2.55;1.00;;;24.00;49.20;;;;;;5067498;28;20187;-52
2023/02/13 00:58:27;;;;;;;3.45;1.15;;;24.00;49.10;;;;;;5050963;28;20199;-54
2023/02/13 01:00:58;;;;;;;3.60;1.35;;;24.10;49.10;;;;;;5050490;28;20215;-52
2023/02/13 01:03:29;;;;;;;3.13;0.93;;;24.10;49.10;;;;;;5051142;28;20211;-50
2023/02/13 01:06:00;;;;;;;2.22;0.90;;;24.20;49.10;;;;;;5051204;28;20290;-55
2023/02/13 01:08:31;;;;;;;2.72;1.30;;;24.20;49.20;;;;;;5065708;28;20209;-51
2023/02/13 01:11:01;;;;;;;1.33;0.90;;;24.20;49.10;;;;;;5070818;28;20683;-54
2023/02/13 01:13:34;;;;;;;4.28;1.33;;;24.20;49.10;;;;;;5067696;28;20555;-52
2023/02/13 01:16:05;;;;;;;2.47;1.05;;;24.20;49.10;;;;;;5050830;28;20652;-53
2023/02/13 01:18:36;;;;;;;1.60;0.90;;;24.30;49.10;;;;;;5051016;28;20191;-51
2023/02/13 01:21:09;;;;;;;4.45;1.13;;;24.30;49.10;;;;;;5050395;28;20215;-51
2023/02/13 01:23:40;;;;;;;3.97;1.08;;;24.30;49.10;;;;;;5050706;28;20200;-56
2023/02/13 01:26:17;;;;;;;3.20;1.13;;;24.30;49.20;;;;;;5051184;28;20662;-49
2023/02/13 01:28:50;;;;;;;3.53;1.23;;;24.40;49.30;;;;;;5051025;28;20203;-48
2023/02/13 01:31:20;;;;;;;2.92;1.15;;;24.40;49.30;;;;;;5050554;28;20231;-50
2023/02/13 01:33:51;;;;;;;3.80;1.10;;;24.40;49.30;;;;;;5050710;28;20310;-52
2023/02/13 01:36:22;;;;;;;2.67;1.10;;;24.50;49.30;;;;;;5050644;28;20196;-49
2023/02/13 01:38:56;;;;;;;3.63;1.30;;;24.50;49.30;;;;;;5068485;28;20206;-51
2023/02/13 01:41:27;;;;;;;3.28;1.30;;;24.50;49.20;;;;;;5070329;28;20226;-51
2023/02/13 01:44:00;;;;;;;4.95;1.15;;;24.50;49.20;;;;;;5073989;28;20205;-53
2023/02/13 01:46:34;;;;;;;3.38;1.17;;;24.50;49.20;;;;;;5074979;28;20203;-54
2023/02/13 01:49:11;;;;;;;2.40;1.00;;;24.60;49.30;;;;;;5074963;28;20202;-53
2023/02/13 01:51:42;;;;;;;3.30;1.02;;;24.60;49.30;;;;;;5074059;28;20222;-54
2023/02/13 01:54:16;;;;;;;3.05;1.20;;;24.70;49.30;;;;;;5074298;28;20199;-50
2023/02/13 01:56:50;;;;;;;3.08;1.08;;;24.70;49.30;;;;;;5074302;28;20281;-57
2023/02/13 01:59:26;;;;;;;3.40;1.13;;;24.70;49.40;;;;;;5074129;28;20203;-51
2023/02/13 02:01:58;;;;;;;4.22;1.30;;;24.70;49.30;;;;;;5074152;28;20222;-54
2023/02/13 02:04:31;;;;;;;3.47;1.17;;;24.70;49.30;;;;;;5074140;28;20198;-50
2023/02/13 02:07:05;;;;;;;4.65;1.25;;;24.80;49.40;;;;;;5073773;28;20682;-53
2023/02/13 02:09:38;;;;;;;4.68;1.40;;;24.80;49.50;;;;;;5070671;28;20659;-50
2023/02/13 02:12:16;;;;;;;4.75;1.60;;;24.80;49.50;;;;;;5073444;28;20711;-50
2023/02/13 02:14:49;;;;;;;3.83;1.30;;;24.80;49.60;;;;;;5073949;28;20200;-54
2023/02/13 02:17:20;;;;;;;2.40;1.00;;;24.90;49.60;;;;;;5073970;28;20195;-52
2023/02/13 02:19:57;;;;;;;4.40;1.30;;;24.90;49.50;;;;;;5074109;28;20190;-50
2023/02/13 02:22:56;;;;;;;5.43;1.35;;;24.90;49.50;;;;;;5073688;28;20585;-50
2023/02/13 02:25:53;;;;;;;3.95;1.25;;;24.90;49.40;;;;;;5073574;28;20773;-48
2023/02/13 02:28:49;;;;;;;5.18;1.42;;;25.00;49.40;;;;;;5073897;28;20673;-54
2023/02/13 02:31:59;;;;;;;3.13;1.27;;;25.00;49.40;;;;;;5073464;28;20230;-52
2023/02/13 02:34:38;;;;;;;3.10;1.30;;;25.00;49.40;;;;;;5069811;28;20195;-53
2023/02/13 02:37:22;;;;;;;3.85;1.30;;;25.00;49.90;;;;;;5072869;28;20210;-52
2023/02/13 02:40:03;;;;;;;5.75;1.35;;;25.10;49.40;;;;;;5073159;28;20678;-50
2023/02/13 02:42:40;;;;;;;3.20;1.17;;;25.10;49.40;;;;;;5073306;28;20194;-51
2023/02/13 02:45:23;;;;;;;4.28;1.58;;;25.10;49.40;;;;;;5073341;28;20662;-47
2023/02/13 02:50:52;;;;;;;2.97;1.17;;;25.10;49.40;;;;;;5053096;28;20226;-49
2023/02/13 02:53:32;;;;;;;2.33;1.10;;;25.20;49.50;;;;;;5052476;28;20191;-50
2023/02/13 02:56:12;;;;;;;4.55;1.15;;;25.20;49.40;;;;;;5053187;28;20202;-50
2023/02/13 03:07:19;;;;;;;4.85;1.40;;;25.30;49.30;;;;;;5056706;28;20251;-48
2023/02/13 03:15:30;;;;;;;3.63;1.20;;;25.40;49.30;;;;;;5073164;28;20194;-50
2023/02/13 03:23:52;;;;;;;7.18;2.13;;;25.50;49.40;;;;;;5052485;28;20563;-50
2023/02/13 03:26:49;;;;;;;3.55;1.50;;;25.50;49.40;;;;;;5052249;28;20564;-47
2023/02/13 03:32:27;;;;;;;4.75;1.50;;;25.50;49.40;;;;;;5052285;28;20281;-49
2023/02/13 03:38:02;;;;;;;4.38;1.40;;;25.60;49.40;;;;;;5061943;28;20675;-52
2023/02/13 03:41:17;;;;;;;2.97;1.23;;;25.60;49.30;;;;;;5072792;28;20214;-50
2023/02/13 03:43:37;;;;;;;3.35;1.30;;;25.60;49.30;;;;;;5071956;28;20202;-49
2023/02/13 03:46:09;;;;;;;5.18;1.33;;;25.60;49.20;;;;;;5072669;28;20210;-54
2023/02/13 03:51:32;;;;;;;3.78;1.10;;;25.70;49.30;;;;;;5072124;28;20289;-51
2023/02/13 03:54:06;;;;;;;3.92;1.42;;;25.70;49.20;;;;;;5072136;28;20198;-52
2023/02/13 03:59:35;;;;;;;3.47;1.50;;;25.80;49.20;;;;;;5072085;28;20280;-51
2023/02/13 04:02:12;;;;;;;2.45;1.00;;;25.80;49.20;;;;;;5071871;28;20222;-53
2023/02/13 04:04:52;;;;;;;2.88;1.08;;;25.80;49.20;;;;;;5071542;28;20201;-50
2023/02/13 04:07:32;;;;;;;4.38;1.60;;;25.80;49.20;;;;;;5071685;28;20199;-51
2023/02/13 04:10:05;;;;;;;4.72;1.50;;;25.80;49.20;;;;;;5072059;28;20607;-51
2023/02/13 04:12:44;;;;;;;4.28;1.40;;;25.90;49.20;;;;;;5071901;28;20226;-51
2023/02/13 04:15:20;;;;;;;2.70;1.20;;;25.90;49.20;;;;;;5071530;28;20701;-48
2023/02/13 04:17:55;;;;;;;2.08;1.20;;;25.90;49.10;;;;;;5053775;28;20194;-54
2023/02/13 04:20:29;;;;;;;4.75;1.45;;;25.90;49.10;;;;;;5051319;28;20219;-49
2023/02/13 04:23:05;;;;;;;3.40;1.17;;;26.00;49.10;;;;;;5051253;28;20194;-51
2023/02/13 04:25:37;;;;;;;4.20;1.33;;;26.00;49.10;;;;;;5050994;28;20202;-49
2023/02/13 04:28:10;;;;;;;3.38;1.33;;;26.00;49.00;;;;;;5051365;28;20199;-48
2023/02/13 04:30:40;;;;;;;4.32;1.30;;;26.00;49.00;;;;;;5051794;28;20239;-48
2023/02/13 04:33:11;;;;;;;3.83;1.40;;;26.00;49.00;;;;;;5051478;28;20227;-46
2023/02/13 04:35:42;;;;;;;4.45;1.40;;;26.00;49.00;;;;;;5051698;28;20211;-48
2023/02/13 04:38:12;;;;;;;3.55;1.35;;;26.10;49.00;;;;;;5063749;28;20705;-48
2023/02/13 04:40:43;;;;;;;4.60;1.63;;;26.10;49.00;;;;;;5071438;28;20215;-49
2023/02/13 04:43:15;;;;;;;2.85;1.15;;;26.10;49.00;;;;;;5067604;28;20209;-46
2023/02/13 04:45:49;;;;;;;3.15;1.70;;;26.10;49.00;;;;;;5083030;22;20706;-52
2023/02/13 04:48:20;;;;;;;3.90;1.33;;;26.10;48.90;;;;;;5010966;28;20200;-49
2023/02/13 04:50:50;;;;;;;3.33;1.38;;;26.10;48.90;;;;;;5011251;28;20221;-52
2023/02/13 04:53:21;;;;;;;5.30;1.48;;;26.10;48.90;;;;;;4997070;28;20225;-52
2023/02/13 04:55:53;;;;;;;3.20;1.30;;;26.20;49.00;;;;;;4991960;28;20197;-53
2023/02/13 04:58:25;;;;;;;3.00;1.40;;;26.20;48.90;;;;;;4991780;28;20240;-50
2023/02/13 05:00:56;;;;;;;4.07;1.42;;;26.20;48.90;;;;;;4992072;28;20213;-49
2023/02/13 05:03:26;;;;;;;3.53;1.40;;;26.20;48.90;;;;;;4991990;28;20208;-52
2023/02/13 05:05:57;;;;;;;7.38;2.25;;;26.20;48.90;;;;;;4991898;28;20209;-52
2023/02/13 05:08:28;;;;;;;3.65;1.40;;;26.20;48.90;;;;;;5005333;28;20230;-50
2023/02/13 05:10:59;;;;;;;3.78;1.42;;;26.20;48.90;;;;;;5010854;28;20217;-53
2023/02/13 05:13:31;;;;;;;4.57;1.50;;;26.20;48.80;;;;;;5011120;28;20697;-51
2023/02/13 05:16:02;;;;;;;4.20;1.70;;;26.20;48.90;;;;;;5011402;28;20669;-50
2023/02/13 05:18:33;;;;;;;5.45;1.58;;;26.20;48.80;;;;;;5014001;28;20668;-48
2023/02/13 05:23:50;;;;;;;4.40;1.35;;;26.20;48.80;;;;;;4996107;28;20196;-48
2023/02/13 05:26:20;;;;;;;4.45;1.42;;;26.20;48.70;;;;;;4995756;28;20198;-51
2023/02/13 05:31:39;;;;;;;4.07;1.40;;;26.20;48.70;;;;;;4995367;28;20691;-52
2023/02/13 05:34:10;;;;;;;4.38;1.42;;;26.20;48.70;;;;;;4995404;28;20208;-50
2023/02/13 05:36:41;;;;;;;4.93;1.85;;;26.20;48.70;;;;;;4995089;28;20208;-51
2023/02/13 05:39:12;;;;;;;4.50;1.45;;;26.20;48.60;;;;;;4995339;28;20198;-49
2023/02/13 05:41:42;;;;;;;3.58;1.38;;;26.20;48.60;;;;;;4995342;28;20221;-51
2023/02/13 05:44:15;;;;;;;2.63;1.27;;;26.20;48.70;;;;;;4994729;28;20568;-49
2023/02/13 05:46:46;;;;;;;3.90;1.50;;;26.20;48.60;;;;;;4994946;28;20209;-52
2023/02/13 05:49:18;;;;;;;3.03;1.50;;;26.20;48.60;;;;;;5024680;23;20237;-48
2023/02/13 05:51:48;;;;;;;3.60;1.45;;;26.20;48.60;;;;;;5074042;28;20580;-48
2023/02/13 05:54:19;;;;;;;4.70;1.35;;;26.20;48.60;;;;;;5074290;28;20198;-50
2023/02/13 05:56:50;;;;;;;3.88;1.60;;;26.20;48.60;;;;;;5074388;28;20191;-52
2023/02/13 05:59:22;;;;;;;2.90;1.30;;;26.20;48.50;;;;;;5074007;28;20199;-48
2023/02/13 06:01:53;;;;;;;4.20;1.42;;;26.20;48.50;;;;;;5074327;28;20214;-48
2023/02/13 06:04:24;;;;;;;5.45;1.67;;;26.20;48.50;;;;;;5074056;28;20195;-47
2023/02/13 06:06:54;;;;;;;3.65;1.42;;;26.20;48.40;;;;;;5073776;28;20203;-47
2023/02/13 06:09:25;;;;;;;4.80;1.63;;;26.20;48.30;;;;;;5074087;28;20277;-46
2023/02/13 06:11:56;;;;;;;3.83;1.20;;;26.20;48.40;;;;;;5061189;28;20748;-48
2023/02/13 06:14:28;;;;;;;4.68;1.60;;;26.20;48.30;;;;;;5054274;28;20202;-47
2023/02/13 06:16:59;;;;;;;5.05;1.40;;;26.20;48.30;;;;;;5053794;28;20200;-46
2023/02/13 06:19:30;;;;;;;4.78;1.23;;;26.10;48.20;;;;;;5054029;28;20195;-47
2023/02/13 06:22:01;;;;;;;3.30;1.33;;;26.10;48.20;;;;;;5053814;28;20226;-48
2023/02/13 06:24:31;;;;;;;3.85;1.80;;;26.10;48.20;;;;;;5053671;28;20302;-48
2023/02/13 06:27:02;;;;;;;3.30;1.08;;;26.10;48.20;;;;;;5053751;28;20192;-48
2023/02/13 06:29:34;;;;;;;3.38;1.30;;;26.10;48.20;;;;;;5052186;28;20192;-50
2023/02/13 06:32:05;;;;;;;2.85;1.30;;;26.10;48.20;;;;;;5053468;28;20220;-47
2023/02/13 06:34:36;;;;;;;3.50;1.40;;;26.10;48.20;;;;;;5053485;28;20202;-47
2023/02/13 06:37:06;;;;;;;3.00;1.33;;;26.10;48.20;;;;;;5056760;28;20241;-54
2023/02/13 06:39:37;;;;;;;2.88;1.10;;;26.10;48.20;;;;;;5073526;28;20654;-48
2023/02/13 06:42:08;;;;;;;3.67;0.98;;;26.10;48.20;;;;;;5073050;28;20218;-47
2023/02/13 06:44:40;;;;;;;3.55;1.50;;;26.10;48.20;;;;;;5073358;28;20197;-46
2023/02/13 06:47:11;;;;;;;3.03;1.30;;;26.00;48.10;;;;;;5070163;28;20187;-52
2023/02/13 06:49:42;;;;;;;3.50;1.30;;;26.00;48.10;;;;;;5078716;22;20230;-53
2023/02/13 06:52:12;;;;;;;2.78;1.20;;;26.00;48.00;;;;;;5052771;28;20509;-54
2023/02/13 06:54:43;;;;;;;2.67;1.10;;;26.00;48.00;;;;;;5053129;28;20597;-50
2023/02/13 06:57:14;;;;;;;3.17;1.27;;;26.00;48.00;;;;;;5052850;28;20203;-52
2023/02/13 06:59:46;;;;;;;3.55;1.38;;;26.00;48.10;;;;;;5052324;28;20210;-50
2023/02/13 07:02:17;;;;;;;3.83;1.63;;;26.00;48.00;;;;;;5042006;28;20223;-49
2023/02/13 07:04:48;;;;;;;2.83;1.13;;;26.00;48.00;;;;;;5032689;28;20192;-52
2023/02/13 07:07:18;;;;;;;2.20;1.27;;;25.90;47.90;;;;;;5037369;28;20208;-52
2023/02/13 07:09:49;;;;;;;3.10;1.20;;;25.90;47.90;;;;;;5051913;28;20217;-52
2023/02/13 07:12:20;;;;;;;2.45;1.27;;;25.90;48.00;;;;;;5052065;28;20223;-51
2023/02/13 07:14:52;;;;;;;3.35;1.20;;;25.90;47.90;;;;;;5052713;28;20210;-50
2023/02/13 07:17:23;;;;;;;2.20;1.00;;;25.90;47.90;;;;;;5052883;28;20195;-52
2023/02/13 07:19:53;;;;;;;3.40;1.48;;;25.90;47.90;;;;;;5052737;28;20199;-51
2023/02/13 07:22:24;;;;;;;3.25;1.30;;;25.90;47.90;;;;;;5049351;28;20230;-51
2023/02/13 07:24:55;;;;;;;2.50;1.30;;;25.90;47.90;;;;;;5032134;28;20566;-52
2023/02/13 07:27:27;;;;;;;2.00;0.90;;;25.90;47.80;;;;;;5031890;28;20204;-53
2023/02/13 07:30:00;;;;;;;5.00;1.52;;;25.90;47.70;;;;;;5032163;28;20625;-49
2023/02/13 07:32:31;;;;;;;10.98;2.05;;;25.80;46.70;;;;;;5032013;28;20223;-50
2023/02/13 07:35:02;;;;;;;5.72;1.67;;;25.80;46.50;;;;;;5032282;28;20223;-50
2023/02/13 07:37:33;;;;;;;4.88;1.30;;;25.70;46.40;;;;;;5039061;28;20279;-53
2023/02/13 07:40:05;;;;;;;4.43;1.88;;;25.70;46.50;;;;;;5051563;28;20203;-50
2023/02/13 07:42:36;;;;;;;4.82;1.42;;;25.60;46.50;;;;;;5053332;28;20196;-49
2023/02/13 07:45:10;;;;;;;4.32;1.42;;;25.60;46.60;;;;;;5052580;28;20199;-52
2023/02/13 07:47:41;;;;;;;4.43;1.60;;;25.60;46.60;;;;;;5052272;28;20198;-52
2023/02/13 07:50:12;;;;;;;5.95;1.60;;;25.50;46.60;;;;;;5052065;28;20239;-53
2023/02/13 07:52:43;;;;;;;5.20;1.35;;;25.60;46.80;;;;;;5051376;28;20215;-52
2023/02/13 07:55:13;;;;;;;4.75;1.33;;;25.50;46.70;;;;;;5052002;28;20195;-51
2023/02/13 07:57:44;;;;;;;2.33;1.33;;;25.50;46.70;;;;;;5052075;28;20199;-53
2023/02/13 08:00:18;;;;;;;4.95;1.50;;;25.50;46.80;;;;;;5051660;28;20190;-51
2023/02/13 08:02:49;;;;;;;5.07;1.38;;;25.50;46.80;;;;;;5051885;28;20656;-53
2023/02/13 08:05:20;;;;;;;2.28;1.17;;;25.50;46.80;;;;;;5052046;28;20199;-52
2023/02/13 08:07:50;;;;;;;2.95;1.02;;;25.50;46.80;;;;;;5051581;28;20204;-54
2023/02/13 08:13:09;;;;;;;3.17;1.45;;;25.50;46.80;;;;;;5048455;28;20714;-54
2023/02/13 08:15:43;;;;;;;4.57;1.10;;;25.50;46.80;;;;;;5051375;28;20574;-51
2023/02/13 08:18:14;;;;;;;3.17;1.27;;;25.50;46.80;;;;;;5051500;28;20257;-52
2023/02/13 08:20:44;;;;;;;3.72;1.30;;;25.40;46.80;;;;;;5051636;28;20222;-53
2023/02/13 08:23:15;;;;;;;2.35;1.17;;;25.40;46.80;;;;;;5051322;28;20206;-52
2023/02/13 08:25:48;;;;;;;3.75;1.33;;;25.40;46.80;;;;;;5051309;28;20191;-54
2023/02/13 08:28:19;;;;;;;2.55;1.10;;;25.40;46.90;;;;;;5051655;28;20199;-51
2023/02/13 08:30:51;;;;;;;3.22;1.50;;;25.40;46.90;;;;;;5050869;28;20208;-53
2023/02/13 08:33:22;;;;;;;2.22;1.05;;;25.40;46.90;;;;;;5050790;28;20223;-51
2023/02/13 08:35:53;;;;;;;3.90;0.98;;;25.40;46.90;;;;;;5050999;28;20564;-54
2023/02/13 08:38:23;;;;;;;2.83;1.23;;;25.40;46.90;;;;;;5051091;28;20207;-50
2023/02/13 08:40:54;;;;;;;2.92;0.90;;;25.30;46.90;;;;;;5051335;28;20262;-51
2023/02/13 08:43:25;;;;;;;2.08;0.98;;;25.30;46.90;;;;;;5048328;28;20576;-51
2023/02/13 08:46:01;;;;;;;3.05;1.13;;;25.30;46.90;;;;;;5051316;28;20206;-52
2023/02/13 08:48:32;;;;;;;2.50;1.00;;;25.30;46.90;;;;;;5051327;28;20226;-49
2023/02/13 08:51:06;;;;;;;1.90;1.20;;;25.30;46.90;;;;;;5051359;28;20238;-50
2023/02/13 08:53:38;;;;;;;2.50;0.90;;;25.30;46.90;;;;;;5054184;28;20744;-50
2023/02/13 08:56:09;;;;;;;2.28;1.17;;;25.30;46.90;;;;;;5055290;28;20587;-50
2023/02/13 08:58:39;;;;;;;3.80;1.35;;;25.30;46.90;;;;;;5042442;28;20200;-51
2023/02/13 09:01:12;;;;;;;1.98;1.05;;;25.30;46.90;;;;;;5034940;28;20230;-49
2023/02/13 09:03:43;;;;;;;1.63;0.90;;;25.20;46.90;;;;;;5035332;28;20207;-51
2023/02/13 09:06:14;;;;;;;3.00;1.20;;;25.20;46.90;;;;;;5035333;28;20297;-51
2023/02/13 09:08:44;;;;;;;2.20;0.93;;;25.20;46.90;;;;;;5051884;28;20200;-50
2023/02/13 09:11:15;;;;;;;1.92;1.00;;;25.20;46.90;;;;;;5054711;28;20222;-51
2023/02/13 09:13:47;;;;;;;1.50;0.90;;;25.20;46.90;;;;;;5054687;28;20584;-50
2023/02/13 09:16:19;;;;;;;3.33;1.10;;;25.20;47.00;;;;;;5055464;28;20250;-51
2023/02/13 09:18:50;;;;;;;1.40;0.90;;;25.20;47.00;;;;;;5045589;28;20196;-53
2023/02/13 09:21:22;;;;;;;2.05;1.20;;;25.10;46.90;;;;;;5034855;28;20216;-52
2023/02/13 09:23:54;;;;;;;3.10;1.30;;;25.10;47.00;;;;;;5034737;28;20605;-49
2023/02/13 09:26:24;;;;;;;2.60;0.80;;;25.10;46.90;;;;;;5035033;28;20651;-50
2023/02/13 09:28:55;;;;;;;2.35;1.00;;;25.10;47.00;;;;;;5034942;28;20207;-50
2023/02/13 09:31:28;;;;;;;1.48;0.93;;;25.10;47.00;;;;;;5034632;28;20253;-50
2023/02/13 09:33:58;;;;;;;2.70;1.15;;;25.10;47.00;;;;;;5034761;28;20250;-50
2023/02/13 09:36:29;;;;;;;2.88;1.10;;;25.10;46.90;;;;;;5034475;28;20200;-50
2023/02/13 09:39:00;;;;;;;2.08;1.08;;;25.10;46.90;;;;;;5052888;28;20211;-49
2023/02/13 09:41:33;;;;;;;1.80;1.00;;;25.10;46.90;;;;;;5053735;28;20226;-49
2023/02/13 09:44:07;;;;;;;2.45;0.90;;;25.00;46.90;;;;;;5054353;28;20604;-49
2023/02/13 09:46:42;;;;;;;2.97;0.95;;;25.00;46.90;;;;;;5054856;28;20239;-50
2023/02/13 09:49:16;;;;;;;2.83;1.00;;;24.90;46.90;;;;;;5054902;28;20690;-50
2023/02/13 09:51:51;;;;;;;1.15;0.98;;;24.90;46.90;;;;;;5054326;28;20584;-50
2023/02/13 09:54:24;;;;;;;1.77;1.00;;;24.90;46.90;;;;;;5054417;28;20718;-52
2023/02/13 09:57:01;;;;;;;2.58;1.05;;;24.90;46.90;;;;;;5054300;28;20227;-51
2023/02/13 09:59:45;;;;;;;2.10;1.10;;;24.90;47.00;;;;;;5054041;28;20253;-51
2023/02/13 10:02:30;;;;;;;2.45;1.00;;;24.90;47.00;;;;;;5053732;28;20223;-51
2023/02/13 10:05:09;;;;;;;1.35;0.85;;;24.90;47.00;;;;;;5053581;28;20203;-53
2023/02/13 10:07:47;;;;;;;2.45;0.65;;;24.90;47.00;;;;;;5054012;28;20221;-50
2023/02/13 10:10:25;;;;;;;1.65;0.90;;;24.80;46.90;;;;;;5054193;28;20437;-49
2023/02/13 10:13:25;;;;;;;1.65;0.98;;;24.80;46.90;;;;;;5053905;28;20194;-53
2023/02/13 10:16:03;;;;;;;1.50;1.00;;;24.80;47.00;;;;;;5032029;28;20195;-53
2023/02/13 10:18:45;;;;;;;2.65;0.95;;;24.80;47.00;;;;;;5053789;28;20203;-50
2023/02/13 10:21:20;;;;;;;2.00;0.93;;;24.80;47.10;;;;;;5054114;28;20592;-52
2023/02/13 10:23:56;;;;;;;1.42;0.93;;;24.70;47.10;;;;;;5053829;28;20195;-52
2023/02/13 10:26:41;;;;;;;2.15;1.00;;;24.70;47.10;;;;;;5054109;28;20225;-50
2023/02/13 10:32:09;;;;;;;2.17;1.10;;;24.70;47.20;;;;;;5053912;28;20284;-53
2023/02/13 10:34:45;;;;;;;1.42;0.88;;;24.70;47.20;;;;;;5053264;28;20227;-53
2023/02/13 10:37:18;;;;;;;2.03;0.93;;;24.70;47.30;;;;;;5053383;28;20207;-50
2023/02/13 10:39:49;;;;;;;2.60;0.95;;;24.70;47.30;;;;;;5053570;28;20211;-50
2023/02/13 10:42:24;;;;;;;1.33;0.85;;;24.60;47.20;;;;;;5053621;28;20615;-53
2023/02/13 10:45:07;;;;;;;1.45;0.88;;;24.60;47.30;;;;;;5053195;28;20194;-48
2023/02/13 10:47:52;;;;;;;1.42;0.80;;;24.60;47.20;;;;;;5053104;28;20199;-49
2023/02/13 10:50:32;;;;;;;1.60;0.95;;;24.60;47.30;;;;;;5053200;28;20218;-50
2023/02/13 10:53:20;;;;;;;2.53;1.20;;;24.60;47.30;;;;;;5049796;28;20195;-50
2023/02/13 10:56:13;;;;;;;2.35;1.00;;;24.60;47.40;;;;;;5035471;28;20193;-52
2023/02/13 10:58:58;;;;;;;1.65;1.00;;;24.50;47.30;;;;;;5032775;28;20196;-50
2023/02/13 11:01:34;;;;;;;2.63;1.00;;;24.50;47.40;;;;;;5033315;28;20680;-49
2023/02/13 11:04:09;;;;;;;3.30;1.13;;;24.50;47.40;;;;;;5033173;28;20206;-49
2023/02/13 11:06:44;;;;;;;3.10;1.13;;;24.50;47.50;;;;;;5033159;28;20200;-50
2023/02/13 11:09:15;;;;;;;1.73;0.90;;;24.50;47.50;;;;;;5032916;28;20203;-49
2023/02/13 11:11:46;;;;;;;1.75;1.08;;;24.50;47.50;;;;;;5033033;28;20219;-50
2023/02/13 11:14:18;;;;;;;1.80;1.00;;;24.50;47.60;;;;;;5032939;28;20231;-49
2023/02/13 11:16:56;;;;;;;2.53;0.98;;;24.50;47.60;;;;;;5032502;28;20200;-50
2023/02/13 11:19:32;;;;;;;1.80;0.88;;;24.40;47.60;;;;;;5032807;28;20660;-51
2023/02/13 11:22:08;;;;;;;1.55;1.00;;;24.40;47.60;;;;;;5032889;28;20230;-50
2023/02/13 11:24:41;;;;;;;3.00;1.15;;;24.40;47.60;;;;;;5032460;28;20200;-50
2023/02/13 11:27:15;;;;;;;1.42;0.90;;;24.40;47.60;;;;;;5034879;28;20188;-50
2023/02/13 11:29:57;;;;;;;2.13;1.13;;;24.40;47.70;;;;;;5032352;28;20196;-50
2023/02/13 11:32:29;;;;;;;3.33;1.23;;;24.40;47.70;;;;;;5032654;28;20227;-51
2023/02/13 11:35:17;;;;;;;2.33;1.10;;;24.40;47.70;;;;;;5032253;28;20231;-50
2023/02/13 11:37:50;;;;;;;2.13;1.15;;;24.30;47.80;;;;;;5040964;28;20210;-50
2023/02/13 11:40:33;;;;;;;2.58;1.30;;;24.40;47.90;;;;;;5052352;28;20195;-53
2023/02/13 11:43:04;;;;;;;1.90;1.00;;;24.30;47.80;;;;;;5052668;28;20199;-48
2023/02/13 11:45:35;;;;;;;3.00;0.82;;;24.30;47.80;;;;;;5052303;28;20204;-50
2023/02/13 11:48:21;;;;;;;2.72;1.15;;;24.30;47.90;;;;;;5052332;28;20277;-51
2023/02/13 11:50:56;;;;;;;2.35;0.90;;;24.30;47.90;;;;;;5052102;28;20219;-50
2023/02/13 11:53:34;;;;;;;3.30;1.27;;;24.30;47.90;;;;;;5051612;28;20199;-50
2023/02/13 11:56:07;;;;;;;2.53;1.08;;;24.30;47.90;;;;;;5051893;28;20199;-50
2023/02/13 11:58:38;;;;;;;2.80;1.20;;;24.30;47.90;;;;;;5051830;28;20196;-51
2023/02/13 12:01:29;;;;;;;2.08;0.90;;;24.30;48.00;;;;;;5051339;28;20219;-51
2023/02/13 12:04:06;;;;;;;1.60;0.73;;;24.30;47.90;;;;;;5051557;28;20207;-51
2023/02/13 12:06:40;;;;;;;2.78;1.05;;;24.30;47.90;;;;;;5051855;28;20199;-50
2023/02/13 12:09:17;;;;;;;4.20;1.17;;;24.20;47.90;;;;;;5051912;28;20227;-50
2023/02/13 12:11:50;;;;;;;2.10;0.80;;;24.20;47.90;;;;;;5051607;28;20211;-50
2023/02/13 12:14:23;;;;;;;2.92;0.90;;;24.20;48.00;;;;;;5048130;28;20216;-50
2023/02/13 12:16:56;;;;;;;3.20;1.40;;;24.20;48.00;;;;;;5051474;28;20195;-49
2023/02/13 12:19:33;;;;;;;1.25;0.80;;;24.20;48.00;;;;;;5051390;28;20196;-50
2023/02/13 12:22:27;;;;;;;1.75;0.90;;;24.10;48.00;;;;;;5051727;28;20219;-49
2023/02/13 12:25:24;;;;;;;2.03;1.00;;;24.10;48.00;;;;;;5051297;28;20707;-50
2023/02/13 12:28:09;;;;;;;1.05;0.82;;;24.10;48.00;;;;;;5051784;28;20698;-49
2023/02/13 12:30:54;;;;;;;2.17;0.88;;;24.10;48.00;;;;;;5051487;28;20211;-52
2023/02/13 12:33:39;;;;;;;3.10;1.02;;;24.10;48.00;;;;;;5051403;28;20199;-53
2023/02/13 12:36:18;;;;;;;1.80;0.90;;;24.10;48.10;;;;;;5050945;28;20610;-52
2023/02/13 12:39:02;;;;;;;3.35;0.90;;;24.10;48.10;;;;;;5050808;28;20671;-51
2023/02/13 12:41:44;;;;;;;1.33;0.88;;;24.10;48.10;;;;;;5051384;28;20211;-49
2023/02/13 12:44:45;;;;;;;2.58;1.02;;;24.10;48.10;;;;;;5051302;28;20199;-51
2023/02/13 12:47:21;;;;;;;2.78;0.90;;;24.00;48.00;;;;;;5051590;28;20194;-52
2023/02/13 12:50:28;;;;;;;2.47;1.05;;;24.00;48.00;;;;;;5051993;28;20207;-53
2023/02/13 12:53:19;;;;;;;2.45;1.00;;;24.00;48.10;;;;;;5045866;28;20188;-52
2023/02/13 12:56:14;;;;;;;3.00;1.30;;;24.00;48.10;;;;;;5031705;28;20715;-54
2023/02/13 12:59:09;;;;;;;2.35;1.05;;;24.00;48.10;;;;;;5031606;28;20211;-55
2023/02/13 13:02:06;;;;;;;2.08;0.90;;;24.00;48.20;;;;;;5039076;28;20214;-53
2023/02/13 13:04:49;;;;;;;2.50;1.13;;;24.00;48.30;;;;;;5050909;28;20199;-53
2023/02/13 13:07:40;;;;;;;2.28;1.05;;;23.90;48.20;;;;;;5050980;28;20210;-49
2023/02/13 13:10:29;;;;;;;2.58;0.90;;;23.90;48.20;;;;;;5050859;28;20199;-50
2023/02/13 13:13:10;;;;;;;2.92;1.08;;;23.90;48.20;;;;;;5051000;28;20614;-50
2023/02/13 13:15:50;;;;;;;2.03;0.88;;;23.90;48.20;;;;;;5050256;28;20594;-50
2023/02/13 13:18:33;;;;;;;2.33;0.95;;;23.90;48.20;;;;;;5042228;28;20201;-48
2023/02/13 13:21:20;;;;;;;2.47;1.05;;;23.90;48.30;;;;;;5031184;28;20220;-51
2023/02/13 13:23:56;;;;;;;3.05;1.20;;;23.90;48.30;;;;;;5030939;28;20200;-50
2023/02/13 13:26:36;;;;;;;2.15;1.00;;;23.80;48.20;;;;;;5031497;28;20287;-49
2023/02/13 13:29:12;;;;;;;3.38;1.27;;;23.80;48.30;;;;;;5031347;28;20242;-52
2023/02/13 13:31:48;;;;;;;2.25;0.77;;;23.80;48.30;;;;;;5031214;28;20575;-50
2023/02/13 13:34:24;;;;;;;1.95;1.00;;;23.80;48.40;;;;;;5031266;28;20541;-50
2023/02/13 13:37:01;;;;;;;1.65;0.85;;;23.80;48.40;;;;;;5032601;28;20192;-50
2023/02/13 13:39:41;;;;;;;3.05;1.05;;;23.80;48.40;;;;;;5053671;28;20207;-52
2023/02/13 13:42:18;;;;;;;2.30;1.17;;;23.70;48.30;;;;;;5054639;28;20594;-50
2023/02/13 13:45:03;;;;;;;2.75;1.13;;;23.70;48.30;;;;;;5054821;28;20199;-52
2023/02/13 13:47:55;;;;;;;1.95;0.90;;;23.70;48.30;;;;;;5054183;28;20550;-51
2023/02/13 13:50:28;;;;;;;1.95;0.88;;;23.70;48.30;;;;;;5054673;28;20558;-51
2023/02/13 13:53:14;;;;;;;1.77;0.90;;;23.70;48.30;;;;;;5054268;28;20239;-49
2023/02/13 13:56:03;;;;;;;2.47;0.93;;;23.70;48.30;;;;;;5054501;28;20223;-49
2023/02/13 13:58:43;;;;;;;2.70;0.93;;;23.70;48.40;;;;;;5054399;28;20200;-50
2023/02/13 14:01:25;;;;;;;1.35;0.90;;;23.70;48.30;;;;;;5054220;28;20215;-52
2023/02/13 14:03:59;;;;;;;2.20;0.80;;;23.70;48.30;;;;;;5054381;28;20200;-51
2023/02/13 14:06:51;;;;;;;2.22;1.00;;;23.70;48.30;;;;;;5053805;28;20205;-50
2023/02/13 14:09:42;;;;;;;1.98;1.00;;;23.70;48.40;;;;;;5033911;28;20669;-49
2023/02/13 14:12:47;;;;;;;1.73;0.82;;;23.70;48.40;;;;;;5034137;28;20216;-49
2023/02/13 14:15:54;;;;;;;1.92;1.10;;;23.70;48.50;;;;;;5034027;28;20231;-49